createdAt,value
2018-09-05T00:00:22.473Z,18.80
2018-09-05T00:02:50.702Z,19.90
2018-09-05T00:05:18.949Z,20.77
2018-09-05T00:07:47.234Z,19.10
2018-09-05T00:10:15.481Z,17.27
2018-09-05T00:12:43.704Z,16.00
2018-09-05T00:15:11.962Z,17.30
2018-09-05T00:17:40.207Z,18.53
2018-09-05T00:20:08.418Z,17.27
2018-09-05T00:22:36.670Z,18.73
2018-09-05T00:25:04.933Z,16.30
2018-09-05T00:27:33.161Z,17.23
2018-09-05T00:30:01.522Z,14.80
2018-09-05T00:32:29.763Z,17.67
2018-09-05T00:34:57.982Z,15.30
2018-09-05T00:37:26.239Z,15.27
2018-09-05T00:39:54.487Z,14.90
2018-09-05T00:42:22.726Z,14.10
2018-09-05T00:44:50.965Z,14.20
2018-09-05T00:47:19.219Z,14.10
2018-09-05T00:49:47.440Z,16.47
2018-09-05T00:52:15.686Z,14.70
2018-09-05T00:54:43.905Z,17.47
2018-09-05T00:57:12.125Z,15.63
2018-09-05T00:59:40.354Z,17.10
2018-09-05T01:02:08.606Z,14.70
2018-09-05T01:04:36.846Z,14.03
2018-09-05T01:07:16.393Z,16.23
2018-09-05T01:09:44.598Z,15.50
2018-09-05T01:12:12.838Z,16.47
2018-09-05T01:14:41.054Z,15.70
2018-09-05T01:17:09.337Z,16.77
2018-09-05T01:19:37.555Z,18.60
2018-09-05T01:22:05.856Z,14.47
2018-09-05T01:24:34.086Z,15.80
2018-09-05T01:27:02.315Z,13.23
2018-09-05T01:29:30.841Z,13.87
2018-09-05T01:31:59.088Z,13.70
2018-09-05T01:34:27.362Z,18.13
2018-09-05T01:36:55.606Z,24.37
2018-09-05T01:39:23.824Z,14.87
2018-09-05T01:41:52.075Z,13.07
2018-09-05T01:44:20.317Z,14.07
2018-09-05T01:46:48.577Z,16.10
2018-09-05T01:49:16.818Z,12.30
2018-09-05T01:51:45.074Z,12.07
2018-09-05T01:54:13.305Z,16.20
2018-09-05T01:56:42.007Z,13.60
2018-09-05T01:59:10.256Z,16.43
2018-09-05T02:01:38.505Z,17.90
2018-09-05T02:04:06.801Z,14.57
2018-09-05T02:06:35.065Z,13.10
2018-09-05T02:09:03.397Z,13.73
2018-09-05T02:11:31.618Z,14.50
2018-09-05T02:13:59.857Z,13.10
2018-09-05T02:16:28.258Z,14.33
2018-09-05T02:18:56.653Z,13.40
2018-09-05T02:21:24.892Z,14.87
2018-09-05T02:23:53.110Z,15.23
2018-09-05T02:26:21.343Z,16.03
2018-09-05T02:28:49.574Z,14.50
2018-09-05T02:31:17.781Z,13.00
2018-09-05T02:33:46.008Z,16.47
2018-09-05T02:36:14.273Z,17.60
2018-09-05T02:38:42.509Z,16.40
2018-09-05T02:41:10.830Z,13.23
2018-09-05T02:43:44.437Z,13.60
2018-09-05T02:46:12.670Z,14.07
2018-09-05T02:48:40.889Z,14.67
2018-09-05T02:51:09.153Z,13.67
2018-09-05T02:53:37.409Z,16.20
2018-09-05T02:56:05.678Z,11.97
2018-09-05T02:58:34.718Z,11.03
2018-09-05T03:01:02.982Z,13.73
2018-09-05T03:03:31.467Z,15.23
2018-09-05T03:05:59.722Z,12.53
2018-09-05T03:08:27.998Z,11.93
2018-09-05T03:10:56.270Z,13.80
2018-09-05T03:13:24.517Z,11.47
2018-09-05T03:15:52.753Z,13.97
2018-09-05T03:18:21.006Z,9.80
2018-09-05T03:20:49.251Z,12.00
2018-09-05T03:23:17.483Z,12.70
2018-09-05T03:25:45.954Z,11.80
2018-09-05T03:28:14.187Z,13.60
2018-09-05T03:30:42.430Z,14.60
2018-09-05T03:33:10.734Z,11.77
2018-09-05T03:35:38.965Z,12.17
2018-09-05T03:38:07.193Z,11.93
2018-09-05T03:40:35.457Z,12.20
2018-09-05T03:43:03.689Z,12.80
2018-09-05T03:45:32.041Z,12.00
2018-09-05T03:48:01.365Z,12.63
2018-09-05T03:50:29.604Z,12.20
2018-09-05T03:52:57.845Z,12.03
2018-09-05T03:55:26.055Z,11.33
2018-09-05T03:57:54.311Z,11.30
2018-09-05T04:00:22.590Z,9.70
2018-09-05T04:02:50.868Z,11.20
2018-09-05T04:05:19.157Z,9.80
2018-09-05T04:07:47.381Z,9.93
2018-09-05T04:10:15.608Z,11.30
2018-09-05T04:12:43.830Z,10.50
2018-09-05T04:15:12.127Z,9.80
2018-09-05T04:17:40.373Z,10.43
2018-09-05T04:20:09.277Z,12.00
2018-09-05T04:22:37.509Z,11.50
2018-09-05T04:25:05.776Z,10.37
2018-09-05T04:27:34.070Z,10.40
2018-09-05T04:30:02.624Z,10.77
2018-09-05T04:32:30.874Z,11.00
2018-09-05T04:34:59.109Z,10.93
2018-09-05T04:37:27.350Z,10.87
2018-09-05T04:39:55.610Z,11.37
2018-09-05T04:42:23.878Z,10.60
2018-09-05T04:44:52.104Z,11.50
2018-09-05T04:47:20.317Z,10.73
2018-09-05T04:49:48.575Z,13.90
2018-09-05T04:52:17.029Z,10.97
2018-09-05T04:54:45.298Z,11.10
2018-09-05T04:57:13.602Z,10.43
2018-09-05T04:59:41.859Z,9.83
2018-09-05T05:02:10.151Z,11.03
2018-09-05T05:04:38.469Z,10.10
2018-09-05T05:07:06.622Z,10.13
2018-09-05T05:09:34.877Z,24.53
2018-09-05T05:12:03.128Z,14.40
2018-09-05T05:14:31.542Z,9.70
2018-09-05T05:16:59.780Z,12.73
2018-09-05T05:19:28.490Z,10.43
2018-09-05T05:21:56.758Z,9.10
2018-09-05T05:24:25.003Z,10.40
2018-09-05T05:26:53.246Z,11.17
2018-09-05T05:29:21.481Z,10.30
2018-09-05T05:31:49.714Z,8.77
2018-09-05T05:34:18.607Z,8.97
2018-09-05T05:36:46.954Z,9.80
2018-09-05T05:39:15.201Z,10.13
2018-09-05T05:41:43.422Z,10.10
2018-09-05T05:44:11.669Z,9.63
2018-09-05T05:46:39.963Z,13.17
2018-09-05T05:49:08.175Z,13.17
2018-09-05T05:51:36.497Z,9.53
2018-09-05T05:54:04.766Z,9.87
2018-09-05T05:56:33.081Z,9.50
2018-09-05T05:59:01.493Z,12.30
2018-09-05T06:01:29.758Z,10.83
2018-09-05T06:03:58.155Z,12.77
2018-09-05T06:06:26.487Z,11.03
2018-09-05T06:08:54.654Z,10.90
2018-09-05T06:11:22.920Z,11.30
2018-09-05T06:13:51.185Z,11.07
2018-09-05T06:16:19.494Z,11.07
2018-09-05T06:18:47.821Z,12.77
2018-09-05T06:21:16.207Z,11.07
2018-09-05T06:23:44.453Z,12.60
2018-09-05T06:26:12.638Z,10.47
2018-09-05T06:28:40.900Z,10.50
2018-09-05T06:31:09.295Z,9.93
2018-09-05T06:33:37.303Z,12.50
2018-09-05T06:36:05.517Z,11.87
2018-09-05T06:38:33.725Z,9.90
2018-09-05T06:41:01.930Z,11.30
2018-09-05T06:43:30.886Z,13.20
2018-09-05T06:45:59.074Z,11.93
2018-09-05T06:48:27.261Z,14.37
2018-09-05T06:51:01.042Z,11.17
2018-09-05T06:53:29.420Z,12.67
2018-09-05T06:55:57.602Z,11.87
2018-09-05T06:58:25.798Z,13.90
2018-09-05T07:00:54.002Z,11.43
2018-09-05T07:03:22.516Z,13.53
2018-09-05T07:05:50.765Z,11.57
2018-09-05T07:08:19.010Z,14.30
2018-09-05T07:10:47.311Z,13.63
2018-09-05T07:13:15.637Z,12.47
2018-09-05T07:15:44.013Z,12.37
2018-09-05T07:18:12.367Z,11.57
2018-09-05T07:20:40.670Z,15.40
2018-09-05T07:23:09.379Z,17.33
2018-09-05T07:25:37.652Z,12.37
2018-09-05T07:28:06.307Z,14.37
2018-09-05T07:30:34.737Z,13.23
2018-09-05T07:33:03.042Z,12.70
2018-09-05T07:35:31.469Z,12.70
2018-09-05T07:37:59.870Z,14.03
2018-09-05T07:40:28.225Z,12.67
2018-09-05T07:42:56.634Z,11.27
2018-09-05T07:45:25.598Z,12.00
2018-09-05T07:47:54.411Z,11.83
2018-09-05T07:50:22.753Z,12.67
2018-09-05T07:52:51.130Z,12.03
2018-09-05T07:55:19.714Z,12.87
2018-09-05T07:57:48.157Z,10.93
2018-09-05T08:00:16.601Z,10.27
2018-09-05T08:02:45.036Z,11.37
2018-09-05T08:05:13.489Z,11.27
2018-09-05T08:07:42.325Z,10.50
2018-09-05T08:10:10.758Z,10.27
2018-09-05T08:12:39.221Z,9.87
2018-09-05T08:15:08.137Z,10.90
2018-09-05T08:17:36.826Z,10.80
2018-09-05T08:20:05.354Z,11.67
2018-09-05T08:22:33.948Z,12.77
2018-09-05T08:25:02.369Z,9.00
2018-09-05T08:27:30.769Z,12.20
2018-09-05T08:29:59.163Z,8.90
2018-09-05T08:32:27.754Z,8.93
2018-09-05T08:34:56.563Z,12.07
2018-09-05T08:37:25.035Z,12.23
2018-09-05T08:39:54.041Z,9.70
2018-09-05T08:42:23.610Z,11.20
2018-09-05T08:44:52.150Z,10.57
2018-09-05T08:47:20.620Z,11.60
2018-09-05T08:49:49.109Z,10.00
2018-09-05T08:52:17.528Z,12.10
2018-09-05T08:54:45.986Z,13.73
2018-09-05T08:57:14.424Z,12.07
2018-09-05T08:59:42.990Z,12.93
2018-09-05T09:02:11.508Z,11.07
2018-09-05T09:04:40.258Z,12.47
2018-09-05T09:07:08.575Z,13.80
2018-09-05T09:09:37.022Z,13.53
2018-09-05T09:12:06.139Z,13.63
2018-09-05T09:14:34.582Z,13.23
2018-09-05T09:17:03.213Z,12.87
2018-09-05T09:19:31.609Z,16.83
2018-09-05T09:21:59.962Z,12.97
2018-09-05T09:24:28.405Z,12.60
2018-09-05T09:26:56.791Z,13.73
2018-09-05T09:29:25.223Z,13.63
2018-09-05T09:31:53.746Z,15.33
2018-09-05T09:34:22.242Z,15.50
2018-09-05T09:36:51.066Z,15.10
2018-09-05T09:39:19.542Z,20.43
2018-09-05T09:41:48.195Z,15.47
2018-09-05T09:44:16.636Z,14.63
2018-09-05T09:46:45.125Z,15.10
2018-09-05T09:49:13.476Z,15.63
2018-09-05T09:51:41.891Z,14.40
2018-09-05T09:54:10.329Z,14.17
2018-09-05T09:56:38.839Z,14.43
2018-09-05T09:59:07.331Z,15.07
2018-09-05T10:01:41.318Z,14.33
2018-09-05T10:04:14.998Z,15.33
2018-09-05T10:06:47.737Z,15.73
2018-09-05T10:09:21.548Z,16.40
2018-09-05T10:11:55.399Z,14.30
2018-09-05T10:14:29.021Z,15.50
2018-09-05T10:17:02.741Z,14.97
2018-09-05T10:19:32.444Z,15.40
2018-09-05T10:22:01.138Z,15.80
2018-09-05T10:24:30.009Z,13.83
2018-09-05T10:26:58.580Z,14.63
2018-09-05T10:29:27.134Z,16.17
2018-09-05T10:31:55.710Z,15.90
2018-09-05T10:34:25.284Z,15.50
2018-09-05T10:36:53.751Z,16.40
2018-09-05T10:39:22.750Z,15.83
2018-09-05T10:41:51.413Z,14.10
2018-09-05T10:44:20.642Z,14.20
2018-09-05T10:46:49.026Z,13.20
2018-09-05T10:49:17.446Z,14.53
2018-09-05T10:51:51.170Z,14.13
2018-09-05T10:54:19.771Z,13.07
2018-09-05T10:56:49.305Z,12.70
2018-09-05T10:59:17.874Z,13.97
2018-09-05T11:01:46.352Z,12.20
2018-09-05T11:04:14.818Z,11.37
2018-09-05T11:06:43.300Z,13.47
2018-09-05T11:09:12.474Z,12.90
2018-09-05T11:11:41.124Z,12.70
2018-09-05T11:14:10.538Z,13.80
2018-09-05T11:16:39.360Z,14.63
2018-09-05T11:19:08.307Z,12.60
2018-09-05T11:21:36.773Z,18.97
2018-09-05T11:24:06.438Z,14.90
2018-09-05T11:26:35.401Z,12.53
2018-09-05T11:29:03.962Z,12.80
2018-09-05T11:31:32.952Z,12.47
2018-09-05T11:34:01.370Z,12.93
2018-09-05T11:36:29.736Z,12.83
2018-09-05T11:38:58.217Z,13.50
2018-09-05T11:41:26.661Z,13.30
2018-09-05T11:43:55.313Z,12.47
2018-09-05T11:46:23.676Z,14.90
2018-09-05T11:48:52.334Z,13.77
2018-09-05T11:51:21.218Z,14.00
2018-09-05T11:53:49.641Z,15.17
2018-09-05T11:56:18.061Z,15.13
2018-09-05T11:58:46.681Z,14.97
2018-09-05T12:01:15.387Z,13.60
2018-09-05T12:03:43.765Z,15.23
2018-09-05T12:06:12.197Z,13.80
2018-09-05T12:08:40.635Z,13.83
2018-09-05T12:11:09.322Z,13.33
2018-09-05T12:13:37.733Z,14.30
2018-09-05T12:16:06.285Z,13.37
2018-09-05T12:18:34.755Z,12.50
2018-09-05T12:21:03.153Z,14.17
2018-09-05T12:23:32.808Z,14.60
2018-09-05T12:26:01.281Z,15.07
2018-09-05T12:28:29.742Z,18.10
2018-09-05T12:30:58.274Z,14.13
2018-09-05T12:33:26.897Z,15.10
2018-09-05T12:35:55.305Z,15.60
2018-09-05T12:38:23.873Z,14.47
2018-09-05T12:40:52.277Z,15.10
2018-09-05T12:43:20.821Z,13.73
2018-09-05T12:45:49.209Z,15.50
2018-09-05T12:48:17.585Z,13.83
2018-09-05T12:50:46.836Z,15.57
2018-09-05T12:53:15.200Z,15.63
2018-09-05T12:55:43.845Z,15.33
2018-09-05T12:58:12.290Z,15.23
2018-09-05T13:00:40.845Z,15.80
2018-09-05T13:03:09.293Z,16.47
2018-09-05T13:05:38.418Z,16.33
2018-09-05T13:08:06.869Z,17.80
2018-09-05T13:10:35.673Z,17.03
2018-09-05T13:13:04.508Z,17.20
2018-09-05T13:15:33.130Z,17.17
2018-09-05T13:18:02.484Z,17.23
2018-09-05T13:20:30.850Z,16.53
2018-09-05T13:22:59.453Z,15.07
2018-09-05T13:25:27.830Z,14.80
2018-09-05T13:27:57.128Z,15.57
2018-09-05T13:30:25.593Z,16.50
2018-09-05T13:32:54.072Z,15.03
2018-09-05T13:35:22.797Z,13.90
2018-09-05T13:37:51.652Z,14.63
2018-09-05T13:40:20.198Z,14.70
2018-09-05T13:42:49.555Z,15.00
2018-09-05T13:45:17.945Z,15.23
2018-09-05T13:47:46.335Z,14.97
2018-09-05T13:50:15.763Z,13.27
2018-09-05T13:52:44.135Z,16.10
2018-09-05T13:55:12.567Z,13.87
2018-09-05T13:57:40.946Z,15.00
2018-09-05T14:00:13.728Z,14.80
2018-09-05T14:02:42.292Z,16.20
2018-09-05T14:05:11.309Z,15.60
2018-09-05T14:07:39.816Z,15.57
2018-09-05T14:10:08.253Z,14.40
2018-09-05T14:12:36.759Z,14.20
2018-09-05T14:15:05.746Z,15.73
2018-09-05T14:17:35.753Z,15.80
2018-09-05T14:20:05.062Z,15.77
2018-09-05T14:22:33.827Z,15.27
2018-09-05T14:25:02.278Z,16.13
2018-09-05T14:27:30.710Z,15.40
2018-09-05T14:29:59.130Z,16.83
2018-09-05T14:32:27.674Z,14.90
2018-09-05T14:34:56.189Z,14.60
2018-09-05T14:37:24.613Z,15.70
2018-09-05T14:39:53.580Z,17.10
2018-09-05T14:42:21.882Z,15.60
2018-09-05T14:44:50.484Z,17.10
2018-09-05T14:47:19.142Z,16.13
2018-09-05T14:49:47.549Z,15.70
2018-09-05T14:52:15.997Z,17.03
2018-09-05T14:54:44.398Z,16.90
2018-09-05T14:57:12.941Z,15.47
2018-09-05T14:59:41.491Z,16.57
2018-09-05T15:02:09.905Z,15.23
2018-09-05T15:04:38.437Z,17.30
2018-09-05T15:07:08.141Z,17.20
2018-09-05T15:09:36.675Z,19.80
2018-09-05T15:12:05.142Z,19.27
2018-09-05T15:14:33.590Z,19.10
2018-09-05T15:17:02.008Z,19.10
2018-09-05T15:19:30.739Z,19.30
2018-09-05T15:21:59.135Z,18.60
2018-09-05T15:24:27.522Z,19.77
2018-09-05T15:26:56.127Z,18.37
2018-09-05T15:29:24.550Z,19.77
2018-09-05T15:31:53.038Z,21.77
2018-09-05T15:34:21.455Z,20.97
2018-09-05T15:36:50.012Z,20.20
2018-09-05T15:39:18.472Z,21.87
2018-09-05T15:41:47.003Z,20.90
2018-09-05T15:44:15.570Z,20.87
2018-09-05T15:46:44.002Z,20.27
2018-09-05T15:49:12.541Z,20.73
2018-09-05T15:51:41.109Z,22.67
2018-09-05T15:54:09.483Z,25.23
2018-09-05T15:56:37.751Z,21.53
2018-09-05T15:59:06.030Z,24.80
2018-09-05T16:01:34.321Z,26.33
2018-09-05T16:04:02.601Z,24.17
2018-09-05T16:06:30.882Z,27.90
2018-09-05T16:08:59.356Z,29.53
2018-09-05T16:11:27.533Z,28.40
2018-09-05T16:13:55.788Z,29.10
2018-09-05T16:16:24.184Z,27.40
2018-09-05T16:18:52.443Z,28.83
2018-09-05T16:21:20.809Z,31.13
2018-09-05T16:23:49.034Z,29.27
2018-09-05T16:26:17.392Z,27.03
2018-09-05T16:28:45.654Z,28.27
2018-09-05T16:31:13.902Z,28.93
2018-09-05T16:33:42.125Z,27.90
2018-09-05T16:36:10.878Z,27.40
2018-09-05T16:38:39.084Z,26.50
2018-09-05T16:41:07.359Z,30.53
2018-09-05T16:43:35.737Z,29.10
2018-09-05T16:46:04.008Z,31.00
2018-09-05T16:48:32.301Z,31.50
2018-09-05T16:51:00.502Z,31.77
2018-09-05T16:53:28.768Z,29.30
2018-09-05T16:55:57.061Z,31.57
2018-09-05T16:58:25.339Z,31.33
2018-09-05T17:00:53.798Z,32.60
2018-09-05T17:03:22.037Z,30.70
2018-09-05T17:05:50.257Z,31.23
2018-09-05T17:08:18.459Z,32.00
2018-09-05T17:10:46.685Z,36.90
2018-09-05T17:13:14.923Z,33.90
2018-09-05T17:15:43.377Z,34.40
2018-09-05T17:18:11.875Z,35.13
2018-09-05T17:20:40.176Z,35.03
2018-09-05T17:23:08.390Z,34.17
2018-09-05T17:25:36.639Z,36.33
2018-09-05T17:28:04.898Z,33.93
2018-09-05T17:30:33.166Z,35.07
2018-09-05T17:33:01.418Z,36.40
2018-09-05T17:35:29.674Z,35.77
2018-09-05T17:37:57.938Z,34.90
2018-09-05T17:40:26.348Z,37.10
2018-09-05T17:42:54.581Z,39.70
2018-09-05T17:45:22.822Z,38.63
2018-09-05T17:47:51.131Z,38.77
2018-09-05T17:50:19.542Z,36.30
2018-09-05T17:52:47.798Z,38.90
2018-09-05T17:55:16.113Z,40.07
2018-09-05T17:57:44.435Z,42.57
2018-09-05T18:00:12.937Z,39.23
2018-09-05T18:02:41.463Z,41.10
2018-09-05T18:05:09.694Z,41.50
2018-09-05T18:07:37.955Z,41.93
2018-09-05T18:10:06.258Z,42.40
2018-09-05T18:12:34.833Z,40.13
2018-09-05T18:15:03.349Z,41.73
2018-09-05T18:17:31.677Z,41.40
2018-09-05T18:19:59.928Z,43.40
2018-09-05T18:22:28.179Z,42.63
2018-09-05T18:24:56.649Z,43.17
2018-09-05T18:27:24.926Z,43.50
2018-09-05T18:29:53.176Z,44.20
2018-09-05T18:32:21.438Z,49.23
2018-09-05T18:34:49.704Z,42.30
2018-09-05T18:37:18.019Z,45.60
2018-09-05T18:39:46.323Z,43.07
2018-09-05T18:42:14.615Z,43.07
2018-09-05T18:44:42.862Z,46.33
2018-09-05T18:47:11.379Z,46.60
2018-09-05T18:49:39.763Z,47.67
2018-09-05T18:52:08.247Z,46.33
2018-09-05T18:54:36.714Z,48.77
2018-09-05T18:57:05.269Z,47.20
2018-09-05T18:59:33.804Z,45.90
2018-09-05T19:02:02.233Z,48.87
2018-09-05T19:04:30.668Z,48.03
2018-09-05T19:06:59.681Z,50.10
2018-09-05T19:09:28.078Z,48.87
2018-09-05T19:11:56.442Z,48.73
2018-09-05T19:14:24.869Z,52.77
2018-09-05T19:16:53.316Z,51.17
2018-09-05T19:19:21.771Z,51.13
2018-09-05T19:21:50.142Z,49.03
2018-09-05T19:24:18.565Z,53.23
2018-09-05T19:26:46.979Z,54.63
2018-09-05T19:29:15.464Z,53.17
2018-09-05T19:31:43.956Z,55.67
2018-09-05T19:34:12.367Z,54.83
2018-09-05T19:36:40.817Z,55.37
2018-09-05T19:39:10.000Z,53.63
2018-09-05T19:41:38.450Z,55.87
2018-09-05T19:44:06.977Z,55.47
2018-09-05T19:46:35.405Z,57.30
2018-09-05T19:49:03.727Z,52.97
2018-09-05T19:51:32.013Z,54.33
2018-09-05T19:54:00.429Z,57.83
2018-09-05T19:56:28.742Z,57.53
2018-09-05T19:58:57.157Z,57.77
2018-09-05T20:01:25.577Z,60.00
2018-09-05T20:03:54.113Z,56.83
2018-09-05T20:06:22.514Z,58.77
2018-09-05T20:08:50.939Z,59.03
2018-09-05T20:11:20.001Z,57.47
2018-09-05T20:13:48.234Z,60.77
2018-09-05T20:16:16.461Z,60.50
2018-09-05T20:18:44.775Z,58.90
2018-09-05T20:21:13.657Z,64.20
2018-09-05T20:23:41.930Z,65.67
2018-09-05T20:26:10.218Z,62.57
2018-09-05T20:28:38.510Z,64.37
2018-09-05T20:31:06.742Z,64.47
2018-09-05T20:33:35.215Z,65.50
2018-09-05T20:36:04.366Z,63.10
2018-09-05T20:38:32.607Z,65.57
2018-09-05T20:41:00.907Z,66.70
2018-09-05T20:43:29.175Z,65.00
2018-09-05T20:45:57.341Z,65.67
2018-09-05T20:48:25.574Z,66.67
2018-09-05T20:50:53.804Z,67.00
2018-09-05T20:53:22.024Z,72.10
2018-09-05T20:55:50.249Z,67.97
2018-09-05T20:58:18.547Z,63.90
2018-09-05T21:00:46.796Z,65.90
2018-09-05T21:03:15.016Z,69.23
2018-09-05T21:05:43.249Z,69.70
2018-09-05T21:08:11.509Z,68.20
2018-09-05T21:10:39.742Z,69.80
2018-09-05T21:13:08.013Z,70.73
2018-09-05T21:15:36.233Z,69.40
2018-09-05T21:18:04.503Z,65.00
2018-09-05T21:20:33.035Z,64.57
2018-09-05T21:23:01.273Z,68.43
2018-09-05T21:25:29.531Z,69.73
2018-09-05T21:27:57.757Z,63.43
2018-09-05T21:30:25.974Z,70.27
2018-09-05T21:32:54.181Z,69.10
2018-09-05T21:35:22.393Z,87.40
2018-09-05T21:37:50.614Z,72.80
2018-09-05T21:40:18.845Z,89.07
2018-09-05T21:42:47.185Z,88.07
2018-09-05T21:45:15.426Z,81.17
2018-09-05T21:47:43.651Z,87.23
2018-09-05T21:50:11.885Z,101.80
2018-09-05T21:52:40.138Z,99.43
2018-09-05T21:55:08.394Z,86.77
2018-09-05T21:57:36.616Z,80.90
2018-09-05T22:00:06.162Z,81.80
2018-09-05T22:02:34.374Z,88.57
2018-09-05T22:05:02.906Z,85.40
2018-09-05T22:07:31.157Z,85.60
2018-09-05T22:09:59.404Z,76.73
2018-09-05T22:12:27.637Z,77.17
2018-09-05T22:14:55.845Z,73.57
2018-09-05T22:17:24.117Z,76.60
2018-09-05T22:19:52.394Z,74.97
2018-09-05T22:22:20.626Z,76.67
2018-09-05T22:24:48.861Z,75.30
2018-09-05T22:27:17.409Z,79.10
2018-09-05T22:29:45.670Z,76.43
2018-09-05T22:32:13.954Z,77.20
2018-09-05T22:34:42.154Z,84.80
2018-09-05T22:37:10.521Z,87.17
2018-09-05T22:39:38.811Z,85.77
2018-09-05T22:42:07.047Z,80.47
2018-09-05T22:44:46.614Z,81.43
2018-09-05T22:47:26.189Z,77.53
2018-09-05T22:50:11.279Z,69.70
2018-09-05T22:57:05.154Z,68.73
2018-09-05T23:00:01.316Z,67.17
2018-09-05T23:04:39.555Z,67.77
2018-09-05T23:07:31.884Z,65.10
2018-09-05T23:10:11.507Z,69.73
2018-09-05T23:12:51.073Z,63.80
2018-09-05T23:15:30.618Z,67.27
2018-09-05T23:18:42.925Z,62.33
2018-09-05T23:21:19.014Z,58.93
2018-09-05T23:23:58.326Z,60.13
2018-09-05T23:26:26.826Z,55.93
2018-09-05T23:28:55.220Z,58.03
2018-09-05T23:31:23.803Z,55.40
2018-09-05T23:33:52.106Z,52.77
2018-09-05T23:36:20.733Z,53.33
2018-09-05T23:38:49.027Z,53.17
2018-09-05T23:41:17.279Z,50.93
2018-09-05T23:43:45.531Z,52.30
2018-09-05T23:46:14.050Z,49.90
2018-09-05T23:48:42.312Z,52.30
2018-09-05T23:51:10.744Z,51.00
2018-09-05T23:53:38.974Z,53.17
2018-09-05T23:56:07.239Z,51.17
2018-09-05T23:58:35.479Z,53.00
